Time;durP1;ratioP1;P1;durP2;ratioP2;P2;SDS_P1;SDS_P2;PMS_P1;PMS_P2;Temp;Humidity;BMP_temperature;BMP_pressure;BME280_temperature;BME280_humidity;BME280_pressure;Samples;Min_cycle;Max_cycle;Signal;HPM_P1;HPM_P2
2021/11/25 00:02:37;;;;;;;6.24;4.41;;;;;;;-1.71;84.76;98940.13;2000136;78;21407;-75
2021/11/25 00:05:40;;;;;;;6.89;5.10;;;;;;;-1.73;84.79;98936.66;2000373;81;20360;-75
2021/11/25 00:08:45;;;;;;;7.26;4.54;;;;;;;-1.75;84.76;98935.75;2002051;80;20225;-75
2021/11/25 00:11:48;;;;;;;7.02;4.39;;;;;;;-1.77;84.73;98929.75;2001388;81;20182;-75
2021/11/25 00:14:51;;;;;;;5.63;4.78;;;;;;;-1.81;84.80;98930.41;2000625;81;20628;-75
2021/11/25 00:17:54;;;;;;;6.43;4.89;;;;;;;-1.80;84.95;98929.59;1995171;78;25212;-75
2021/11/25 00:20:56;;;;;;;7.83;5.47;;;;;;;-1.81;85.12;98927.88;1999526;81;20707;-75
2021/11/25 00:24:04;;;;;;;7.76;5.26;;;;;;;-1.80;85.35;98916.88;1991599;81;20178;-74
2021/11/25 00:27:08;;;;;;;7.53;4.77;;;;;;;-1.75;85.43;98907.75;1996691;81;20174;-75
2021/11/25 00:30:12;;;;;;;8.19;5.04;;;;;;;-1.68;85.55;98909.69;1995612;81;20203;-75
2021/11/25 00:33:15;;;;;;;8.68;5.16;;;;;;;-1.63;85.52;98910.72;2063995;70;37191;-77
2021/11/25 00:36:17;;;;;;;6.43;4.72;;;;;;;-1.65;85.42;98909.81;2009757;80;20157;-77
2021/11/25 00:39:20;;;;;;;6.02;4.77;;;;;;;-1.64;85.73;98913.22;2009503;80;20254;-77
2021/11/25 00:42:23;;;;;;;5.67;4.78;;;;;;;-1.60;85.82;98918.50;2011115;80;20566;-77
2021/11/25 00:45:25;;;;;;;6.41;4.98;;;;;;;-1.56;85.81;98911.81;2008960;80;27470;-76
2021/11/25 00:48:28;;;;;;;8.30;5.08;;;;;;;-1.51;85.84;98907.75;2010205;80;20259;-76
2021/11/25 00:51:31;;;;;;;7.18;4.80;;;;;;;-1.47;85.86;98912.13;2010067;80;20258;-76
2021/11/25 00:54:34;;;;;;;7.33;4.69;;;;;;;-1.41;85.82;98904.72;2009216;80;21196;-77
2021/11/25 00:57:36;;;;;;;7.01;4.88;;;;;;;-1.35;85.62;98891.34;2009027;80;20278;-76
2021/11/25 01:00:39;;;;;;;5.53;4.48;;;;;;;-1.28;85.40;98908.53;2007486;78;20847;-76
2021/11/25 01:03:42;;;;;;;5.46;4.19;;;;;;;-1.25;85.29;98898.50;2008594;80;20207;-77
2021/11/25 01:06:45;;;;;;;7.62;4.57;;;;;;;-1.24;85.14;98901.09;2008802;80;20205;-76
2021/11/25 01:09:47;;;;;;;6.01;4.44;;;;;;;-1.20;85.05;98901.19;2009102;80;20182;-77
2021/11/25 01:12:52;;;;;;;7.38;4.74;;;;;;;-1.27;84.81;98892.44;2008510;80;20202;-77
2021/11/25 01:15:55;;;;;;;7.18;4.06;;;;;;;-1.34;84.95;98888.84;2005399;78;20243;-76
2021/11/25 01:18:58;;;;;;;8.74;4.84;;;;;;;-1.42;85.14;98897.91;2004109;81;20526;-76
2021/11/25 01:22:01;;;;;;;7.56;4.79;;;;;;;-1.38;85.41;98897.19;2004170;81;20279;-76
2021/11/25 01:25:04;;;;;;;8.04;4.79;;;;;;;-1.30;85.51;98898.31;2003819;81;20223;-77
2021/11/25 01:28:12;;;;;;;8.39;4.88;;;;;;;-1.26;85.53;98905.25;2004264;81;20192;-76
2021/11/25 01:31:15;;;;;;;6.21;4.08;;;;;;;-1.22;85.59;98904.56;2001233;78;22861;-76
2021/11/25 01:34:18;;;;;;;5.73;4.07;;;;;;;-1.17;85.63;98903.84;2003017;81;20278;-77
2021/11/25 01:37:23;;;;;;;5.23;4.41;;;;;;;-1.11;85.47;98896.38;2003024;81;20185;-76
2021/11/25 01:40:26;;;;;;;7.21;4.84;;;;;;;-1.06;85.47;98898.28;2003248;81;20165;-77
2021/11/25 01:43:29;;;;;;;5.21;4.27;;;;;;;-0.99;85.20;98895.13;2003431;81;20192;-76
2021/11/25 01:46:32;;;;;;;7.80;4.79;;;;;;;-0.96;85.14;98892.66;2004091;78;21523;-76
2021/11/25 01:49:34;;;;;;;6.72;4.75;;;;;;;-0.91;85.45;98885.16;2008112;80;20309;-77
2021/11/25 01:52:38;;;;;;;6.07;4.21;;;;;;;-0.84;85.37;98883.69;2007952;80;20319;-77
2021/11/25 01:55:40;;;;;;;8.84;4.72;;;;;;;-0.83;85.22;98895.63;2008436;80;20257;-76
2021/11/25 01:58:45;;;;;;;8.16;5.16;;;;;;;-0.85;85.47;98882.84;2008518;80;20313;-76
2021/11/25 02:01:48;;;;;;;6.39;5.00;;;;;;;-0.82;85.44;98879.50;2001689;78;21650;-77
2021/11/25 02:04:51;;;;;;;8.44;4.60;;;;;;;-0.86;85.54;98863.28;2002446;81;20211;-76
2021/11/25 02:07:54;;;;;;;5.93;4.49;;;;;;;-0.84;85.64;98871.81;2003052;81;20193;-76
2021/11/25 02:10:58;;;;;;;9.86;5.21;;;;;;;-0.80;85.52;98878.75;2002549;81;20181;-76
2021/11/25 02:14:01;;;;;;;6.02;4.33;;;;;;;-0.78;85.50;98878.78;2002802;81;20227;-76
2021/11/25 02:17:03;;;;;;;5.51;4.83;;;;;;;-0.79;85.66;98875.38;2000922;78;20539;-76
2021/11/25 02:20:09;;;;;;;7.44;4.89;;;;;;;-0.76;85.61;98862.72;2003181;81;20174;-76
2021/11/25 02:23:13;;;;;;;6.82;4.52;;;;;;;-0.73;85.65;98855.16;2003148;81;20243;-76
2021/11/25 02:26:16;;;;;;;6.74;4.30;;;;;;;-0.74;85.57;98856.00;2002602;81;20221;-76
2021/11/25 02:29:19;;;;;;;5.57;4.39;;;;;;;-0.74;85.48;98858.53;2002893;81;20177;-77
2021/11/25 02:32:32;;;;;;;6.25;4.49;;;;;;;-0.73;85.74;98851.75;2000418;78;28435;-77
2021/11/25 02:35:38;;;;;;;6.41;4.44;;;;;;;-0.75;85.71;98846.63;2002754;81;20343;-76
2021/11/25 02:38:42;;;;;;;8.19;5.23;;;;;;;-0.75;86.24;98836.41;2003249;81;20723;-76
2021/11/25 02:41:44;;;;;;;8.18;5.30;;;;;;;-0.73;86.27;98839.00;2003509;81;20251;-76
2021/11/25 02:44:47;;;;;;;6.73;5.21;;;;;;;-0.68;86.40;98845.16;2002402;81;20625;-76
2021/11/25 02:47:51;;;;;;;8.05;4.93;;;;;;;-0.70;86.49;98840.00;2000331;78;24597;-77
2021/11/25 02:50:55;;;;;;;6.66;5.14;;;;;;;-0.64;86.64;98834.22;2002854;81;20347;-76
2021/11/25 02:53:59;;;;;;;7.03;5.81;;;;;;;-0.58;86.54;98842.03;2002654;81;20209;-76
2021/11/25 02:57:02;;;;;;;6.86;5.21;;;;;;;-0.53;86.59;98840.53;2002418;81;20174;-77
2021/11/25 03:00:14;;;;;;;7.90;5.63;;;;;;;-0.47;86.40;98833.03;2000867;80;20641;-76
2021/11/25 03:03:18;;;;;;;6.28;5.34;;;;;;;-0.42;86.15;98821.28;2003923;78;24738;-76
2021/11/25 03:06:21;;;;;;;8.71;5.78;;;;;;;-0.38;86.09;98802.69;2003579;81;20296;-76
2021/11/25 03:09:24;;;;;;;7.24;5.81;;;;;;;-0.34;86.10;98802.00;2003236;81;20494;-76
2021/11/25 03:12:27;;;;;;;7.34;5.04;;;;;;;-0.29;85.85;98799.56;2003396;81;20309;-76
2021/11/25 03:15:35;;;;;;;7.88;5.70;;;;;;;-0.31;85.88;98798.66;2002443;81;21044;-76
2021/11/25 03:18:39;;;;;;;7.30;5.40;;;;;;;-0.29;85.87;98801.25;2002803;81;20227;-76
2021/11/25 03:21:41;;;;;;;8.02;5.21;;;;;;;-0.26;85.68;98807.31;2004037;81;20394;-76
2021/11/25 03:24:44;;;;;;;7.62;5.26;;;;;;;-0.26;85.65;98801.34;2003833;81;20875;-75
2021/11/25 03:27:47;;;;;;;7.04;5.34;;;;;;;-0.24;85.77;98798.00;2003492;81;20190;-76
2021/11/25 03:30:54;;;;;;;8.35;5.50;;;;;;;-0.23;85.90;98803.97;2004506;80;23441;-76
2021/11/25 03:33:59;;;;;;;8.10;5.07;;;;;;;-0.18;85.82;98807.50;2009452;80;21000;-77
2021/11/25 03:37:02;;;;;;;7.18;5.31;;;;;;;-0.16;85.55;98803.34;2009410;80;20388;-76
2021/11/25 03:40:07;;;;;;;7.19;4.72;;;;;;;-0.15;85.48;98805.06;2009710;80;20444;-76
2021/11/25 03:43:10;;;;;;;6.99;5.20;;;;;;;-0.15;85.49;98808.47;2009334;80;20331;-76
2021/11/25 03:46:12;;;;;;;6.81;5.34;;;;;;;-0.15;85.47;98793.19;2006291;78;24617;-76
2021/11/25 03:49:15;;;;;;;7.30;5.05;;;;;;;-0.12;85.53;98798.34;2004164;81;20830;-76
2021/11/25 03:52:18;;;;;;;7.53;5.31;;;;;;;-0.12;85.52;98800.91;2005082;81;20931;-77
2021/11/25 03:55:20;;;;;;;8.05;5.68;;;;;;;-0.09;85.48;98798.44;2004128;81;21051;-77
2021/11/25 03:58:23;;;;;;;7.34;5.34;;;;;;;-0.06;85.62;98793.41;2003970;81;20373;-77
2021/11/25 04:01:26;;;;;;;7.72;4.91;;;;;;;-0.10;85.51;98790.75;2003078;78;20377;-77
2021/11/25 04:04:28;;;;;;;7.00;4.81;;;;;;;-0.07;85.56;98786.59;2003367;81;20316;-76
2021/11/25 04:07:31;;;;;;;7.52;5.57;;;;;;;-0.08;85.47;98795.06;2003912;81;20819;-77
2021/11/25 04:10:34;;;;;;;9.21;5.22;;;;;;;-0.07;85.52;98794.25;2003802;81;20189;-76
2021/11/25 04:13:37;;;;;;;7.28;5.18;;;;;;;-0.04;85.59;98790.91;2004776;81;20340;-77
2021/11/25 04:16:39;;;;;;;8.43;5.51;;;;;;;-0.05;85.68;98794.28;2004568;78;22759;-77
2021/11/25 04:19:42;;;;;;;6.05;4.85;;;;;;;-0.04;85.73;98796.88;2008677;80;20347;-76
2021/11/25 04:22:45;;;;;;;7.53;4.96;;;;;;;-0.04;85.57;98799.44;2008006;80;20874;-77
2021/11/25 04:25:47;;;;;;;8.59;5.56;;;;;;;-0.01;85.80;98803.75;2008691;80;20327;-76
2021/11/25 04:28:50;;;;;;;6.50;5.20;;;;;;;0.01;85.86;98804.69;2007936;80;20320;-77
2021/11/25 04:35:34;;;;;;;6.68;5.49;;;;;;;0.04;86.11;98809.88;2008712;80;20449;-77
2021/11/25 04:38:36;;;;;;;7.93;5.70;;;;;;;0.03;86.23;98813.25;2008032;80;20470;-77
2021/11/25 04:41:39;;;;;;;7.91;5.50;;;;;;;0.05;86.41;98806.50;2008645;80;20739;-77
2021/11/25 04:44:42;;;;;;;7.55;5.28;;;;;;;0.07;86.41;98809.09;2008239;80;20858;-77
2021/11/25 04:47:45;;;;;;;9.61;5.72;;;;;;;0.13;86.32;98807.56;2003153;78;23416;-77
2021/11/25 04:50:48;;;;;;;7.07;5.57;;;;;;;0.17;86.33;98809.34;2004059;81;20990;-77
2021/11/25 04:53:51;;;;;;;6.86;5.49;;;;;;;0.18;86.36;98811.13;2004550;81;20320;-76
2021/11/25 04:56:54;;;;;;;7.95;5.49;;;;;;;0.21;86.16;98797.56;2003174;81;20309;-77
2021/11/25 04:59:57;;;;;;;7.07;5.34;;;;;;;0.23;86.03;98799.31;2004461;81;21178;-77
2021/11/25 05:03:00;;;;;;;8.06;5.92;;;;;;;0.25;86.00;98795.13;2002376;78;24721;-77
2021/11/25 05:06:03;;;;;;;6.90;5.53;;;;;;;0.27;85.99;98795.16;2003116;81;20193;-77
2021/11/25 05:09:06;;;;;;;6.95;5.01;;;;;;;0.28;86.16;98791.78;2004164;81;20336;-77
2021/11/25 05:12:09;;;;;;;6.44;5.40;;;;;;;0.30;86.16;98800.34;2003605;81;20309;-77
2021/11/25 05:15:15;;;;;;;7.61;5.55;;;;;;;0.29;86.08;98780.75;2002494;80;20362;-77
2021/11/25 05:18:18;;;;;;;6.25;5.40;;;;;;;0.32;85.93;98780.81;2002684;78;23673;-77
2021/11/25 05:21:20;;;;;;;8.61;6.40;;;;;;;0.34;86.05;98779.16;2003432;81;20338;-77
2021/11/25 05:24:23;;;;;;;8.35;5.47;;;;;;;0.36;85.97;98769.00;2003324;81;20443;-77
2021/11/25 05:27:26;;;;;;;8.69;5.94;;;;;;;0.35;85.89;98773.22;2003562;81;20754;-77
2021/11/25 05:30:32;;;;;;;8.88;5.78;;;;;;;0.35;85.95;98772.38;2002464;78;21178;-77
2021/11/25 05:33:34;;;;;;;7.18;6.01;;;;;;;0.37;86.02;98758.84;2003500;81;20390;-77
2021/11/25 05:36:37;;;;;;;7.97;5.45;;;;;;;0.38;86.23;98755.47;2003697;81;20362;-77
2021/11/25 05:39:40;;;;;;;6.19;5.34;;;;;;;0.42;86.21;98754.72;2003565;81;20368;-77
2021/11/25 05:42:44;;;;;;;7.34;5.64;;;;;;;0.39;86.12;98759.75;2003131;81;20358;-77
2021/11/25 05:45:46;;;;;;;6.28;5.25;;;;;;;0.42;86.32;98759.81;2002010;78;24644;-77
2021/11/25 05:48:49;;;;;;;7.85;5.39;;;;;;;0.41;86.26;98765.75;2003203;81;20393;-77
2021/11/25 05:51:52;;;;;;;9.07;5.68;;;;;;;0.44;86.49;98763.28;2003612;81;20414;-77
2021/11/25 05:54:55;;;;;;;7.53;5.85;;;;;;;0.48;86.54;98762.53;2003907;81;20332;-77
2021/11/25 05:57:59;;;;;;;6.86;5.22;;;;;;;0.51;86.52;98760.03;2003453;81;20352;-76
2021/11/25 06:01:02;;;;;;;6.95;5.20;;;;;;;0.50;86.54;98765.97;2002109;78;20472;-77
2021/11/25 06:04:04;;;;;;;7.14;5.35;;;;;;;0.53;86.71;98748.16;2003747;81;20799;-77
2021/11/25 06:07:07;;;;;;;6.57;5.22;;;;;;;0.58;86.55;98745.75;2003701;81;20781;-77
2021/11/25 06:10:16;;;;;;;8.19;5.97;;;;;;;0.59;86.39;98747.47;2003308;81;20467;-77
2021/11/25 06:13:19;;;;;;;7.70;5.88;;;;;;;0.59;86.69;98753.44;2003644;81;20328;-77
2021/11/25 06:16:21;;;;;;;7.10;5.00;;;;;;;0.59;86.81;98753.44;2002274;78;22546;-77
2021/11/25 06:19:24;;;;;;;6.34;5.24;;;;;;;0.63;86.71;98751.81;2004274;81;20369;-77
2021/11/25 06:22:27;;;;;;;7.18;5.50;;;;;;;0.68;86.54;98757.91;2007445;81;20383;-78
2021/11/25 06:25:30;;;;;;;7.86;5.96;;;;;;;0.67;86.54;98750.19;2010795;81;20321;-77
2021/11/25 06:28:33;;;;;;;6.35;5.32;;;;;;;0.71;86.51;98749.44;2010784;81;20321;-78
2021/11/25 06:31:35;;;;;;;6.66;5.30;;;;;;;0.71;86.65;98750.31;2010534;78;31156;-77
2021/11/25 06:34:38;;;;;;;7.47;5.65;;;;;;;0.73;86.68;98748.69;2009953;81;20329;-77
2021/11/25 06:37:45;;;;;;;8.11;5.46;;;;;;;0.74;86.85;98757.22;2001813;81;20453;-77
2021/11/25 06:40:48;;;;;;;7.10;5.60;;;;;;;0.73;87.08;98760.59;2002250;81;20324;-76
2021/11/25 06:43:52;;;;;;;9.27;6.78;;;;;;;0.76;87.32;98768.31;2002596;81;20364;-77
2021/11/25 06:46:54;;;;;;;9.96;7.07;;;;;;;0.79;87.39;98778.63;2000614;78;24398;-77
2021/11/25 06:49:57;;;;;;;7.95;6.31;;;;;;;0.83;87.28;98777.84;2001333;81;20364;-77
2021/11/25 06:53:00;;;;;;;10.96;6.60;;;;;;;0.83;87.21;98781.28;2003325;81;21417;-76
2021/11/25 06:56:03;;;;;;;10.84;7.11;;;;;;;0.85;87.52;98784.72;2003264;81;20328;-77
2021/11/25 06:59:06;;;;;;;9.56;6.88;;;;;;;0.90;87.50;98788.28;2002365;81;20328;-76
2021/11/25 07:02:09;;;;;;;10.26;6.84;;;;;;;0.92;87.43;98795.97;2005558;77;22963;-77
2021/11/25 07:05:12;;;;;;;11.90;7.68;;;;;;;0.94;87.31;98794.31;2008944;80;20459;-76
2021/11/25 07:08:15;;;;;;;10.82;7.01;;;;;;;0.91;87.45;98784.03;2008766;80;20307;-76
2021/11/25 07:11:18;;;;;;;13.61;8.27;;;;;;;0.94;87.40;98798.56;2009742;80;20342;-77
2021/11/25 07:14:21;;;;;;;18.92;9.02;;;;;;;0.95;87.60;98798.59;2009960;80;20323;-77
2021/11/25 07:17:24;;;;;;;20.17;9.39;;;;;;;0.98;87.60;98798.66;2009471;78;24765;-78
2021/11/25 07:20:26;;;;;;;19.65;10.93;;;;;;;1.01;87.69;98801.28;2011496;80;20323;-78
2021/11/25 07:23:29;;;;;;;18.92;11.05;;;;;;;1.10;87.61;98803.22;2011553;80;20337;-79
2021/11/25 07:26:32;;;;;;;17.42;10.48;;;;;;;1.18;87.09;98802.56;2011520;80;20397;-78
2021/11/25 07:29:36;;;;;;;14.93;10.90;;;;;;;1.25;86.67;98789.91;2012426;80;20346;-80
2021/11/25 07:32:39;;;;;;;18.13;11.59;;;;;;;1.31;86.31;98793.47;2016677;77;23799;-79
2021/11/25 07:35:45;;;;;;;18.13;11.26;;;;;;;1.37;86.03;98797.84;2016596;80;20311;-78
2021/11/25 07:38:48;;;;;;;15.75;11.25;;;;;;;1.39;85.91;98802.16;2015530;80;20308;-79
2021/11/25 07:41:51;;;;;;;17.11;10.43;;;;;;;1.46;85.66;98814.28;2020284;80;20352;-79
2021/11/25 07:44:53;;;;;;;14.10;10.65;;;;;;;1.50;85.42;98821.19;2016960;80;20384;-79
2021/11/25 07:47:56;;;;;;;14.79;10.70;;;;;;;1.55;85.07;98805.94;2010484;78;33827;-78
2021/11/25 07:50:59;;;;;;;20.23;10.98;;;;;;;1.61;84.64;98798.38;2009778;81;20316;-78
2021/11/25 07:54:07;;;;;;;16.36;10.99;;;;;;;1.65;84.32;98799.34;2010429;81;20309;-77
2021/11/25 07:57:10;;;;;;;16.60;11.32;;;;;;;1.73;83.81;98805.47;2010334;80;20394;-78
2021/11/25 08:00:14;;;;;;;16.49;10.89;;;;;;;1.76;83.43;98808.94;2011185;80;20309;-78
2021/11/25 08:03:17;;;;;;;16.91;10.11;;;;;;;1.82;83.23;98813.34;2011939;81;20345;-78
2021/11/25 08:06:20;;;;;;;16.04;11.05;;;;;;;1.85;83.06;98815.09;2010804;81;20925;-79
2021/11/25 08:09:22;;;;;;;16.84;10.81;;;;;;;1.89;82.79;98817.75;2011267;81;20366;-78
2021/11/25 08:12:25;;;;;;;13.89;9.49;;;;;;;1.91;82.50;98813.53;2011439;81;20332;-78
2021/11/25 08:15:29;;;;;;;15.60;9.61;;;;;;;1.96;82.29;98804.22;2010643;78;32250;-78
2021/11/25 08:18:31;;;;;;;12.57;9.19;;;;;;;2.00;82.04;98802.63;2005605;81;20304;-77
2021/11/25 08:21:34;;;;;;;13.98;10.14;;;;;;;2.01;81.62;98805.22;2001947;81;20392;-77
2021/11/25 08:24:37;;;;;;;12.73;9.71;;;;;;;2.05;81.50;98814.66;2002106;81;21334;-77
2021/11/25 08:27:43;;;;;;;12.88;9.66;;;;;;;2.07;81.06;98823.25;2002845;81;20305;-78
2021/11/25 08:30:45;;;;;;;14.04;9.32;;;;;;;2.11;80.83;98824.16;2000759;78;23035;-77
2021/11/25 08:33:51;;;;;;;13.25;9.11;;;;;;;2.15;80.47;98849.00;2001716;81;20472;-76
2021/11/25 08:36:54;;;;;;;14.18;9.80;;;;;;;2.18;80.47;98853.34;2002048;81;20347;-77
2021/11/25 08:39:56;;;;;;;14.81;10.16;;;;;;;2.19;80.51;98861.06;2002237;81;20728;-77
2021/11/25 08:42:59;;;;;;;11.96;9.15;;;;;;;2.21;80.53;98850.84;2002410;81;20391;-77
2021/11/25 08:46:03;;;;;;;14.01;9.96;;;;;;;2.23;80.38;98841.47;2001175;78;39778;-77
2021/11/25 08:49:06;;;;;;;14.69;10.32;;;;;;;2.23;79.95;98839.78;2002693;81;20325;-79
2021/11/25 08:52:09;;;;;;;14.25;10.29;;;;;;;2.26;79.95;98839.84;2005131;81;20910;-79
2021/11/25 08:55:13;;;;;;;12.81;9.23;;;;;;;2.30;79.84;98835.63;2002803;80;20332;-77
2021/11/25 08:58:16;;;;;;;12.82;9.56;;;;;;;2.34;79.90;98838.31;2002866;81;20338;-77
2021/11/25 09:01:24;;;;;;;14.26;9.13;;;;;;;2.37;79.69;98833.22;2003892;78;21721;-77
2021/11/25 09:04:27;;;;;;;13.15;8.88;;;;;;;2.40;79.34;98824.75;2007875;80;20249;-77
2021/11/25 09:07:30;;;;;;;12.59;9.23;;;;;;;2.45;79.39;98835.06;2007546;80;21399;-77
2021/11/25 09:10:35;;;;;;;12.88;8.81;;;;;;;2.46;79.48;98827.41;2007196;80;20940;-77
2021/11/25 09:13:38;;;;;;;12.68;9.49;;;;;;;2.49;79.31;98817.22;2007627;80;20331;-77
2021/11/25 09:16:42;;;;;;;11.45;8.95;;;;;;;2.51;79.10;98815.53;2003296;78;20819;-77
2021/11/25 09:19:44;;;;;;;12.05;8.16;;;;;;;2.54;79.02;98812.19;2003801;81;20340;-77
2021/11/25 09:22:47;;;;;;;11.48;8.63;;;;;;;2.55;78.51;98821.59;2004772;81;21299;-77
2021/11/25 09:25:50;;;;;;;14.34;8.86;;;;;;;2.56;78.33;98824.19;2002911;81;20409;-77
2021/11/25 09:28:58;;;;;;;11.21;8.15;;;;;;;2.58;78.63;98821.66;2002827;81;20316;-77
2021/11/25 09:32:01;;;;;;;11.60;9.11;;;;;;;2.63;78.81;98817.47;2005234;78;21901;-77
2021/11/25 09:35:04;;;;;;;10.50;8.06;;;;;;;2.66;78.50;98817.50;2007789;80;20319;-77
2021/11/25 09:38:08;;;;;;;13.44;9.60;;;;;;;2.67;78.26;98803.84;2007889;80;20320;-77
2021/11/25 09:41:11;;;;;;;9.54;8.21;;;;;;;2.71;78.28;98797.97;2008402;80;20330;-76
2021/11/25 09:44:14;;;;;;;10.96;9.02;;;;;;;2.70;77.67;98796.25;2008389;80;20316;-77
2021/11/25 09:47:17;;;;;;;11.09;8.48;;;;;;;2.71;77.41;98788.59;2002765;78;24390;-77
2021/11/25 09:50:22;;;;;;;12.75;9.02;;;;;;;2.76;77.73;98787.78;2002945;81;20340;-77
2021/11/25 09:53:26;;;;;;;10.26;8.81;;;;;;;2.80;77.53;98790.41;2003440;81;20977;-77
2021/11/25 09:56:29;;;;;;;13.10;8.27;;;;;;;2.83;77.06;98780.22;2003315;81;20456;-77
2021/11/25 09:59:32;;;;;;;11.57;8.41;;;;;;;2.87;77.11;98786.25;2003283;81;20332;-77
2021/11/25 10:02:34;;;;;;;10.74;7.78;;;;;;;2.92;77.64;98797.47;2005932;78;22865;-77
2021/11/25 10:05:38;;;;;;;8.70;7.60;;;;;;;2.95;77.40;98793.25;2008072;80;20433;-77
2021/11/25 10:08:47;;;;;;;11.40;8.38;;;;;;;2.97;76.96;98791.56;2008206;80;20969;-77
2021/11/25 10:11:50;;;;;;;12.61;8.51;;;;;;;3.00;76.98;98801.88;2008892;80;20335;-77
2021/11/25 10:14:53;;;;;;;9.01;8.06;;;;;;;3.01;76.73;98806.16;2007574;80;20903;-77
2021/11/25 10:17:59;;;;;;;9.44;8.26;;;;;;;3.01;76.68;98790.75;2007162;78;39176;-77
2021/11/25 10:21:06;;;;;;;8.93;7.57;;;;;;;3.04;76.97;98798.50;2008444;80;20335;-77
2021/11/25 10:24:10;;;;;;;8.55;7.59;;;;;;;3.08;76.64;98793.44;2009488;80;20354;-77
2021/11/25 10:27:12;;;;;;;9.85;7.76;;;;;;;3.08;76.37;98788.31;2007795;80;20405;-77
2021/11/25 10:30:18;;;;;;;8.27;6.89;;;;;;;3.07;76.08;98795.16;2005993;80;20374;-77
2021/11/25 10:33:28;;;;;;;11.07;7.32;;;;;;;3.09;76.17;98796.03;2004320;78;27623;-77
2021/11/25 10:37:35;;;;;;;10.11;7.46;;;;;;;3.11;76.04;98806.31;2006159;80;20433;-77
2021/11/25 10:40:25;;;;;;;9.49;7.14;;;;;;;3.11;75.64;98796.06;2004778;80;20320;-77
2021/11/25 10:43:29;;;;;;;7.74;6.94;;;;;;;3.10;75.28;98810.59;2007640;80;20396;-76
2021/11/25 10:46:44;;;;;;;8.80;7.60;;;;;;;3.12;75.28;98801.19;2004823;80;24734;-76
2021/11/25 10:49:47;;;;;;;9.41;6.99;;;;;;;3.13;75.07;98800.38;2007169;80;20323;-76
2021/11/25 10:52:51;;;;;;;7.64;6.81;;;;;;;3.11;74.61;98807.19;2007211;80;20383;-76
2021/11/25 10:56:10;;;;;;;7.96;6.95;;;;;;;3.11;74.66;98790.94;2007174;80;20327;-76
2021/11/25 10:59:56;;;;;;;8.26;6.79;;;;;;;3.11;74.86;98799.47;2002982;81;21204;-77
2021/11/25 11:03:29;;;;;;;8.48;6.47;;;;;;;3.13;74.83;98797.81;1997341;78;36886;-76
2021/11/25 11:06:59;;;;;;;7.39;6.40;;;;;;;3.18;75.17;98795.28;2002495;81;20448;-76
2021/11/25 11:10:25;;;;;;;7.76;6.82;;;;;;;3.21;75.31;98791.06;2003145;81;20382;-76
2021/11/25 11:14:21;;;;;;;8.25;6.84;;;;;;;3.25;75.32;98795.44;2002678;81;20348;-76
2021/11/25 11:18:01;;;;;;;9.06;6.84;;;;;;;3.27;75.17;98790.31;1990086;80;968141;-77
2021/11/25 11:21:10;;;;;;;9.10;7.04;;;;;;;3.29;75.03;98789.50;2003642;81;20727;-76
2021/11/25 11:24:40;;;;;;;8.60;7.10;;;;;;;3.30;74.96;98796.34;2001966;81;20342;-77
2021/11/25 11:27:52;;;;;;;8.40;7.41;;;;;;;3.33;75.15;98792.97;2005206;80;20374;-76
2021/11/25 11:31:05;;;;;;;8.39;7.25;;;;;;;3.35;75.07;98793.84;2002954;80;20308;-76
2021/11/25 11:34:49;;;;;;;7.74;6.94;;;;;;;3.36;75.19;98787.88;2000984;81;20383;-76
2021/11/25 11:38:19;;;;;;;8.07;7.25;;;;;;;3.40;75.12;98788.78;1998123;81;20479;-76
2021/11/25 11:42:12;;;;;;;8.46;6.45;;;;;;;3.45;74.93;98789.72;2002077;81;20320;-77
2021/11/25 11:45:33;;;;;;;7.26;6.54;;;;;;;3.48;74.99;98784.63;1999302;78;76005;-77
2021/11/25 11:48:56;;;;;;;9.56;7.06;;;;;;;3.53;75.10;98788.13;2001582;81;20432;-76
2021/11/25 11:52:27;;;;;;;7.43;6.24;;;;;;;3.57;74.78;98780.47;2002409;81;20487;-76
2021/11/25 11:56:17;;;;;;;6.59;5.89;;;;;;;3.60;73.94;98788.22;2002059;81;20383;-77
2021/11/25 11:59:42;;;;;;;6.80;6.16;;;;;;;3.64;73.97;98791.69;2001327;81;20362;-77
2021/11/25 12:03:35;;;;;;;7.53;6.20;;;;;;;3.68;74.04;98785.75;1993874;78;81872;-78
2021/11/25 12:11:05;;;;;;;6.78;6.12;;;;;;;3.80;73.92;98779.94;1997609;81;20340;-76
2021/11/25 12:15:04;;;;;;;6.46;5.86;;;;;;;3.84;73.88;98768.84;1997575;81;20210;-76
2021/11/25 12:18:51;;;;;;;;;;;;;;;;;;;;;
2021/11/25 12:22:27;;;;;;;6.89;6.19;;;;;;;3.82;71.80;98758.56;1998402;81;20437;-76
2021/11/25 12:25:59;;;;;;;6.11;5.59;;;;;;;3.84;71.88;98758.56;1993583;81;21154;-77
2021/11/25 12:29:44;;;;;;;6.95;6.06;;;;;;;3.85;72.05;98756.03;1998112;81;20199;-77
2021/11/25 12:33:12;;;;;;;5.40;4.90;;;;;;;3.85;72.13;98753.44;1979565;81;977289;-77
2021/11/25 12:36:52;;;;;;;6.71;5.40;;;;;;;3.80;70.66;98747.41;1998872;81;20345;-77
2021/11/25 12:40:49;;;;;;;5.65;5.15;;;;;;;3.79;71.05;98750.81;1993741;81;20441;-77
2021/11/25 12:49:07;;;;;;;5.66;4.88;;;;;;;3.87;70.91;98733.78;1993605;81;20913;-77
2021/11/25 12:53:19;;;;;;;;;;;;;;;;;;;;;
2021/11/25 12:56:35;;;;;;;4.55;4.15;;;;;;;4.04;70.71;98741.69;1991464;81;20384;-77
2021/11/25 13:00:06;;;;;;;4.79;4.39;;;;;;;4.09;70.46;98734.00;1992030;81;20425;-77
2021/11/25 13:03:43;;;;;;;4.38;3.86;;;;;;;4.10;69.60;98734.03;1994073;81;20326;-77
2021/11/25 13:07:06;;;;;;;4.63;4.22;;;;;;;4.08;69.68;98732.28;1988624;81;20326;-77
2021/11/25 13:14:26;;;;;;;4.70;4.24;;;;;;;4.09;69.61;98722.03;1989473;81;20472;-77
2021/11/25 13:17:29;;;;;;;4.55;3.71;;;;;;;4.18;70.44;98727.28;1993604;78;21211;-77
2021/11/25 13:20:45;;;;;;;6.22;4.00;;;;;;;4.19;69.18;98711.03;1997631;81;20399;-77
2021/11/25 13:23:58;;;;;;;4.40;4.00;;;;;;;4.20;68.82;98704.19;1997894;81;20408;-77
2021/11/25 13:27:03;;;;;;;4.31;3.96;;;;;;;4.21;69.58;98703.31;1996695;81;20871;-77
2021/11/25 13:30:06;;;;;;;5.40;4.90;;;;;;;4.27;69.84;98707.66;1995330;81;20348;-77
2021/11/25 13:33:09;;;;;;;4.14;3.69;;;;;;;4.34;70.03;98701.75;1996669;78;22549;-77
2021/11/25 13:36:12;;;;;;;4.56;3.84;;;;;;;4.35;69.30;98706.91;1995475;81;20403;-77
2021/11/25 13:39:28;;;;;;;3.86;3.56;;;;;;;4.38;69.28;98704.34;1997085;81;20898;-77
2021/11/25 13:42:35;;;;;;;5.55;4.18;;;;;;;4.42;69.09;98710.38;1995355;81;20362;-77
2021/11/25 13:45:38;;;;;;;4.34;3.83;;;;;;;4.44;69.43;98699.25;1994027;78;24838;-77
2021/11/25 13:48:41;;;;;;;4.35;3.95;;;;;;;4.49;69.09;98700.19;1995955;81;20384;-77
2021/11/25 13:51:45;;;;;;;5.24;4.30;;;;;;;4.57;69.09;98697.66;1996830;81;20400;-77
2021/11/25 13:54:48;;;;;;;5.25;4.38;;;;;;;4.60;68.64;98691.66;1997199;81;20353;-77
2021/11/25 13:57:51;;;;;;;4.66;4.19;;;;;;;4.65;68.62;98698.56;1996963;81;20337;-77
2021/11/25 14:00:54;;;;;;;4.45;4.09;;;;;;;4.69;68.78;98687.47;1995112;78;22852;-77
2021/11/25 14:03:58;;;;;;;6.85;4.65;;;;;;;4.70;68.49;98691.78;1995399;81;20398;-77
2021/11/25 14:07:09;;;;;;;5.10;3.84;;;;;;;4.69;68.64;98695.19;1995025;81;20348;-77
2021/11/25 14:10:20;;;;;;;4.06;3.76;;;;;;;4.66;68.50;98702.84;1996204;81;20359;-77
2021/11/25 14:13:28;;;;;;;3.63;3.14;;;;;;;4.62;68.30;98702.81;1996552;81;21210;-77
2021/11/25 14:16:49;;;;;;;3.64;3.34;;;;;;;4.54;67.69;98697.63;1996015;78;22169;-76
2021/11/25 14:19:55;;;;;;;3.58;3.11;;;;;;;4.47;67.70;98703.56;1997530;81;20339;-77
2021/11/25 14:23:00;;;;;;;7.84;5.95;;;;;;;4.40;67.92;98709.50;1993996;81;20407;-77
2021/11/25 14:26:30;;;;;;;4.94;4.45;;;;;;;4.31;68.32;98709.41;1996482;81;20333;-76
2021/11/25 14:33:00;;;;;;;3.71;3.41;;;;;;;4.20;69.13;98727.28;2000754;81;20564;-76
2021/11/25 14:36:16;;;;;;;3.49;3.29;;;;;;;4.16;69.24;98720.41;1998505;81;20309;-77
2021/11/25 14:39:24;;;;;;;3.46;3.16;;;;;;;4.11;69.15;98725.47;2001770;81;20390;-77
2021/11/25 14:42:27;;;;;;;3.88;3.44;;;;;;;4.07;69.11;98723.72;2002718;81;20388;-77
2021/11/25 14:45:31;;;;;;;5.89;3.65;;;;;;;4.02;69.36;98711.69;1999373;78;22559;-77
2021/11/25 14:48:39;;;;;;;3.40;3.03;;;;;;;3.97;69.41;98724.50;1998109;81;20345;-77
2021/11/25 14:51:41;;;;;;;3.92;3.63;;;;;;;3.91;69.59;98721.84;1997018;81;20751;-76
2021/11/25 14:55:09;;;;;;;3.59;3.13;;;;;;;3.84;69.76;98726.06;1997561;81;20333;-76
2021/11/25 14:58:12;;;;;;;3.39;2.56;;;;;;;3.78;70.11;98714.88;1994981;81;20354;-76
2021/11/25 15:01:15;;;;;;;4.90;3.17;;;;;;;3.70;70.58;98732.72;1997006;78;29568;-77
2021/11/25 15:04:21;;;;;;;2.90;2.70;;;;;;;3.61;70.81;98736.06;2002084;81;20386;-76
2021/11/25 15:07:24;;;;;;;2.90;2.70;;;;;;;3.57;71.55;98731.69;2002834;81;20340;-76
2021/11/25 15:10:33;;;;;;;3.84;2.67;;;;;;;3.49;71.67;98733.31;1998333;81;20368;-76
2021/11/25 15:13:35;;;;;;;2.78;2.56;;;;;;;3.43;72.06;98720.41;2003330;81;20822;-76